sensor_id;sensor_type;location;lat;lon;timestamp;pressure;altitude;pressure_sealevel;temperature;humidity
12172;BME280;6149;52.418;13.668;2022-12-29T00:00:59;100247.97;;;6.95;100.00
12172;BME280;6149;52.418;13.668;2022-12-29T00:03:28;100255.84;;;6.95;100.00
12172;BME280;6149;52.418;13.668;2022-12-29T00:05:57;100248.94;;;6.93;100.00
12172;BME280;6149;52.418;13.668;2022-12-29T00:08:24;100244.69;;;6.90;100.00
12172;BME280;6149;52.418;13.668;2022-12-29T00:11:06;100241.13;;;6.91;100.00
12172;BME280;6149;52.418;13.668;2022-12-29T00:13:34;100235.16;;;6.88;100.00
12172;BME280;6149;52.418;13.668;2022-12-29T00:16:19;100233.38;;;6.88;100.00
12172;BME280;6149;52.418;13.668;2022-12-29T00:18:48;100236.81;;;6.90;100.00
12172;BME280;6149;52.418;13.668;2022-12-29T00:21:16;100231.53;;;6.90;100.00
12172;BME280;6149;52.418;13.668;2022-12-29T00:24:03;100230.63;;;6.91;100.00
12172;BME280;6149;52.418;13.668;2022-12-29T00:26:53;100223.59;;;6.92;100.00
12172;BME280;6149;52.418;13.668;2022-12-29T00:29:41;100219.91;;;6.96;100.00
12172;BME280;6149;52.418;13.668;2022-12-29T00:32:26;100219.91;;;6.96;100.00
12172;BME280;6149;52.418;13.668;2022-12-29T00:35:14;100218.06;;;6.98;100.00
12172;BME280;6149;52.418;13.668;2022-12-29T00:37:46;100221.84;;;7.11;100.00
12172;BME280;6149;52.418;13.668;2022-12-29T00:40:33;100219.28;;;7.10;100.00
12172;BME280;6149;52.418;13.668;2022-12-29T00:43:20;100213.75;;;7.16;100.00
12172;BME280;6149;52.418;13.668;2022-12-29T00:46:06;100214.59;;;7.16;100.00
12172;BME280;6149;52.418;13.668;2022-12-29T00:48:34;100209.19;;;7.19;100.00
12172;BME280;6149;52.418;13.668;2022-12-29T00:51:19;100211.41;;;7.28;100.00
12172;BME280;6149;52.418;13.668;2022-12-29T00:53:45;100203.09;;;7.37;100.00
12172;BME280;6149;52.418;13.668;2022-12-29T00:56:14;100206.00;;;7.31;100.00
12172;BME280;6149;52.418;13.668;2022-12-29T00:58:45;100204.81;;;7.38;100.00
12172;BME280;6149;52.418;13.668;2022-12-29T01:01:12;100204.56;;;7.43;100.00
12172;BME280;6149;52.418;13.668;2022-12-29T01:03:39;100204.38;;;7.48;100.00
12172;BME280;6149;52.418;13.668;2022-12-29T01:06:08;100206.84;;;7.51;100.00
12172;BME280;6149;52.418;13.668;2022-12-29T01:08:37;100204.28;;;7.49;100.00
12172;BME280;6149;52.418;13.668;2022-12-29T01:11:07;100195.03;;;7.59;100.00
12172;BME280;6149;52.418;13.668;2022-12-29T01:13:35;100195.53;;;7.67;100.00
12172;BME280;6149;52.418;13.668;2022-12-29T01:16:05;100192.28;;;7.62;100.00
12172;BME280;6149;52.418;13.668;2022-12-29T01:18:34;100194.06;;;7.62;100.00
12172;BME280;6149;52.418;13.668;2022-12-29T01:21:04;100186.78;;;7.67;100.00
12172;BME280;6149;52.418;13.668;2022-12-29T01:23:33;100191.84;;;7.71;100.00
12172;BME280;6149;52.418;13.668;2022-12-29T01:26:08;100186.72;;;7.68;100.00
12172;BME280;6149;52.418;13.668;2022-12-29T01:28:35;100193.78;;;7.85;100.00
12172;BME280;6149;52.418;13.668;2022-12-29T01:31:07;100200.13;;;7.81;100.00
12172;BME280;6149;52.418;13.668;2022-12-29T01:33:34;100186.38;;;7.76;100.00
12172;BME280;6149;52.418;13.668;2022-12-29T01:36:02;100191.63;;;7.76;100.00
12172;BME280;6149;52.418;13.668;2022-12-29T01:38:29;100184.66;;;7.75;100.00
12172;BME280;6149;52.418;13.668;2022-12-29T01:40:59;100185.97;;;7.84;100.00
12172;BME280;6149;52.418;13.668;2022-12-29T01:43:38;100175.44;;;7.84;100.00
12172;BME280;6149;52.418;13.668;2022-12-29T01:46:15;100183.59;;;7.79;100.00
12172;BME280;6149;52.418;13.668;2022-12-29T01:48:55;100194.97;;;7.80;100.00
12172;BME280;6149;52.418;13.668;2022-12-29T01:51:29;100183.97;;;7.89;100.00
12172;BME280;6149;52.418;13.668;2022-12-29T01:54:01;100179.06;;;7.81;100.00
12172;BME280;6149;52.418;13.668;2022-12-29T01:56:31;100179.06;;;7.81;100.00
12172;BME280;6149;52.418;13.668;2022-12-29T01:59:01;100172.66;;;7.87;100.00
12172;BME280;6149;52.418;13.668;2022-12-29T02:01:31;100170.25;;;7.82;100.00
12172;BME280;6149;52.418;13.668;2022-12-29T02:04:00;100167.53;;;7.84;100.00
12172;BME280;6149;52.418;13.668;2022-12-29T02:06:32;100169.25;;;7.85;100.00
12172;BME280;6149;52.418;13.668;2022-12-29T02:09:01;100160.28;;;7.89;100.00
12172;BME280;6149;52.418;13.668;2022-12-29T02:11:29;100147.09;;;7.89;100.00
12172;BME280;6149;52.418;13.668;2022-12-29T02:13:58;100154.00;;;7.91;100.00
12172;BME280;6149;52.418;13.668;2022-12-29T02:16:49;100147.66;;;7.95;100.00
12172;BME280;6149;52.418;13.668;2022-12-29T02:23:13;100146.59;;;7.99;100.00
12172;BME280;6149;52.418;13.668;2022-12-29T02:26:14;100140.41;;;8.00;100.00
12172;BME280;6149;52.418;13.668;2022-12-29T02:31:58;100136.75;;;8.03;100.00
12172;BME280;6149;52.418;13.668;2022-12-29T02:34:36;100140.16;;;8.05;100.00
12172;BME280;6149;52.418;13.668;2022-12-29T02:37:14;100133.91;;;8.08;100.00
12172;BME280;6149;52.418;13.668;2022-12-29T02:39:52;100140.09;;;8.07;100.00
12172;BME280;6149;52.418;13.668;2022-12-29T02:42:34;100138.00;;;8.13;100.00
12172;BME280;6149;52.418;13.668;2022-12-29T02:45:07;100134.09;;;8.20;100.00
12172;BME280;6149;52.418;13.668;2022-12-29T02:47:46;100127.84;;;8.23;100.00
12172;BME280;6149;52.418;13.668;2022-12-29T02:50:18;100125.97;;;8.25;100.00
12172;BME280;6149;52.418;13.668;2022-12-29T02:52:57;100133.09;;;8.23;100.00
12172;BME280;6149;52.418;13.668;2022-12-29T02:55:28;100132.09;;;8.25;100.00
12172;BME280;6149;52.418;13.668;2022-12-29T02:58:15;100134.88;;;8.22;100.00
12172;BME280;6149;52.418;13.668;2022-12-29T03:01:10;100136.34;;;8.28;100.00
12172;BME280;6149;52.418;13.668;2022-12-29T03:03:57;100132.09;;;8.25;100.00
12172;BME280;6149;52.418;13.668;2022-12-29T03:06:35;100131.78;;;8.31;100.00
12172;BME280;6149;52.418;13.668;2022-12-29T03:09:29;100125.38;;;8.37;100.00
12172;BME280;6149;52.418;13.668;2022-12-29T03:12:13;100126.16;;;8.39;100.00
12172;BME280;6149;52.418;13.668;2022-12-29T03:14:49;100122.19;;;8.48;100.00
12172;BME280;6149;52.418;13.668;2022-12-29T03:17:47;100112.84;;;8.42;100.00
12172;BME280;6149;52.418;13.668;2022-12-29T03:20:22;100113.38;;;8.49;100.00
12172;BME280;6149;52.418;13.668;2022-12-29T03:22:58;100105.47;;;8.49;100.00
12172;BME280;6149;52.418;13.668;2022-12-29T03:25:30;100095.19;;;8.60;100.00
12172;BME280;6149;52.418;13.668;2022-12-29T03:28:01;100097.41;;;8.52;100.00
12172;BME280;6149;52.418;13.668;2022-12-29T03:30:31;100096.88;;;8.61;100.00
12172;BME280;6149;52.418;13.668;2022-12-29T03:33:04;100097.19;;;8.55;100.00
12172;BME280;6149;52.418;13.668;2022-12-29T03:35:37;100093.72;;;8.54;100.00
12172;BME280;6149;52.418;13.668;2022-12-29T03:38:09;100085.66;;;8.57;100.00
12172;BME280;6149;52.418;13.668;2022-12-29T03:40:44;100100.44;;;8.60;100.00
12172;BME280;6149;52.418;13.668;2022-12-29T03:43:14;100095.34;;;8.57;100.00
12172;BME280;6149;52.418;13.668;2022-12-29T03:45:41;100091.78;;;8.58;100.00
12172;BME280;6149;52.418;13.668;2022-12-29T03:48:08;100092.72;;;8.57;100.00
12172;BME280;6149;52.418;13.668;2022-12-29T03:50:36;100093.47;;;8.59;100.00
12172;BME280;6149;52.418;13.668;2022-12-29T03:53:04;100084.63;;;8.60;100.00
12172;BME280;6149;52.418;13.668;2022-12-29T03:55:32;100088.91;;;8.62;100.00
12172;BME280;6149;52.418;13.668;2022-12-29T03:58:00;100087.81;;;8.66;100.00
12172;BME280;6149;52.418;13.668;2022-12-29T04:00:28;100088.91;;;8.62;100.00
12172;BME280;6149;52.418;13.668;2022-12-29T04:02:56;100094.78;;;8.67;100.00
12172;BME280;6149;52.418;13.668;2022-12-29T04:05:23;100091.47;;;8.64;100.00
12172;BME280;6149;52.418;13.668;2022-12-29T04:07:52;100096.03;;;8.60;100.00
12172;BME280;6149;52.418;13.668;2022-12-29T04:10:22;100094.25;;;8.61;100.00
12172;BME280;6149;52.418;13.668;2022-12-29T04:12:54;100087.19;;;8.61;100.00
12172;BME280;6149;52.418;13.668;2022-12-29T04:15:25;100092.53;;;8.60;100.00
12172;BME280;6149;52.418;13.668;2022-12-29T04:17:52;100083.56;;;8.64;100.00
12172;BME280;6149;52.418;13.668;2022-12-29T04:20:21;100094.97;;;8.80;100.00
12172;BME280;6149;52.418;13.668;2022-12-29T04:23:11;100082.03;;;8.76;100.00
12172;BME280;6149;52.418;13.668;2022-12-29T04:25:38;100071.75;;;8.71;100.00
12172;BME280;6149;52.418;13.668;2022-12-29T04:28:05;100084.00;;;8.72;100.00
12172;BME280;6149;52.418;13.668;2022-12-29T04:30:33;100086.50;;;8.91;100.00
12172;BME280;6149;52.418;13.668;2022-12-29T04:33:01;100090.41;;;8.84;100.00
12172;BME280;6149;52.418;13.668;2022-12-29T04:35:28;100092.94;;;8.85;100.00
12172;BME280;6149;52.418;13.668;2022-12-29T04:37:59;100085.38;;;8.79;100.00
12172;BME280;6149;52.418;13.668;2022-12-29T04:40:27;100078.22;;;8.81;100.00
12172;BME280;6149;52.418;13.668;2022-12-29T04:42:55;100069.91;;;8.89;100.00
12172;BME280;6149;52.418;13.668;2022-12-29T04:45:23;100063.94;;;8.85;100.00
12172;BME280;6149;52.418;13.668;2022-12-29T04:47:50;100072.19;;;8.95;100.00
12172;BME280;6149;52.418;13.668;2022-12-29T04:50:20;100071.00;;;8.85;100.00
12172;BME280;6149;52.418;13.668;2022-12-29T04:52:47;100075.09;;;8.90;100.00
12172;BME280;6149;52.418;13.668;2022-12-29T04:55:14;100068.13;;;8.89;100.00
12172;BME280;6149;52.418;13.668;2022-12-29T04:57:44;100058.06;;;8.96;100.00
12172;BME280;6149;52.418;13.668;2022-12-29T05:00:12;100063.44;;;8.94;100.00
12172;BME280;6149;52.418;13.668;2022-12-29T05:02:40;100064.78;;;9.01;100.00
12172;BME280;6149;52.418;13.668;2022-12-29T05:05:09;100064.28;;;8.95;100.00
12172;BME280;6149;52.418;13.668;2022-12-29T05:07:35;100053.81;;;8.93;100.00
12172;BME280;6149;52.418;13.668;2022-12-29T05:10:02;100060.88;;;8.93;100.00
12172;BME280;6149;52.418;13.668;2022-12-29T05:12:32;100053.91;;;8.92;100.00
12172;BME280;6149;52.418;13.668;2022-12-29T05:15:01;100059.94;;;8.94;100.00
12172;BME280;6149;52.418;13.668;2022-12-29T05:17:29;100053.25;;;8.88;100.00
12172;BME280;6149;52.418;13.668;2022-12-29T05:20:00;100059.09;;;8.93;100.00
12172;BME280;6149;52.418;13.668;2022-12-29T05:22:26;100060.00;;;8.92;100.00
12172;BME280;6149;52.418;13.668;2022-12-29T05:24:53;100054.56;;;8.95;100.00
12172;BME280;6149;52.418;13.668;2022-12-29T05:27:25;100049.38;;;8.94;100.00
12172;BME280;6149;52.418;13.668;2022-12-29T05:29:53;100042.50;;;8.91;100.00
12172;BME280;6149;52.418;13.668;2022-12-29T05:32:25;100030.06;;;8.93;100.00
12172;BME280;6149;52.418;13.668;2022-12-29T05:34:52;100041.84;;;8.88;100.00
12172;BME280;6149;52.418;13.668;2022-12-29T05:37:21;100031.78;;;8.94;100.00
12172;BME280;6149;52.418;13.668;2022-12-29T05:39:48;100026.78;;;9.05;100.00
12172;BME280;6149;52.418;13.668;2022-12-29T05:42:15;100017.56;;;8.97;100.00
12172;BME280;6149;52.418;13.668;2022-12-29T05:44:42;100022.09;;;8.95;100.00
12172;BME280;6149;52.418;13.668;2022-12-29T05:47:08;100027.34;;;8.95;100.00
12172;BME280;6149;52.418;13.668;2022-12-29T05:49:40;100027.66;;;8.90;100.00
12172;BME280;6149;52.418;13.668;2022-12-29T05:52:07;100023.78;;;8.96;100.00
12172;BME280;6149;52.418;13.668;2022-12-29T05:54:35;100030.69;;;8.98;100.00
12172;BME280;6149;52.418;13.668;2022-12-29T05:57:02;100017.75;;;8.94;100.00
12172;BME280;6149;52.418;13.668;2022-12-29T05:59:29;100019.19;;;8.99;100.00
12172;BME280;6149;52.418;13.668;2022-12-29T06:01:56;100030.69;;;8.98;100.00
12172;BME280;6149;52.418;13.668;2022-12-29T06:04:22;100023.63;;;8.99;100.00
12172;BME280;6149;52.418;13.668;2022-12-29T06:06:52;100016.72;;;8.96;100.00
12172;BME280;6149;52.418;13.668;2022-12-29T06:09:18;100012.97;;;9.00;100.00
12172;BME280;6149;52.418;13.668;2022-12-29T06:11:45;100021.91;;;8.98;100.00
12172;BME280;6149;52.418;13.668;2022-12-29T06:14:12;100000.75;;;8.99;100.00
12172;BME280;6149;52.418;13.668;2022-12-29T06:16:39;100006.84;;;9.00;100.00
12172;BME280;6149;52.418;13.668;2022-12-29T06:19:08;100009.66;;;8.97;100.00
12172;BME280;6149;52.418;13.668;2022-12-29T06:21:36;100019.03;;;9.02;100.00
12172;BME280;6149;52.418;13.668;2022-12-29T06:24:05;100015.53;;;9.02;100.00
12172;BME280;6149;52.418;13.668;2022-12-29T06:26:33;100006.59;;;9.04;100.00
12172;BME280;6149;52.418;13.668;2022-12-29T06:29:00;100010.25;;;9.02;100.00
12172;BME280;6149;52.418;13.668;2022-12-29T06:31:28;100007.28;;;9.08;100.00
12172;BME280;6149;52.418;13.668;2022-12-29T06:33:56;100002.09;;;9.07;100.00
12172;BME280;6149;52.418;13.668;2022-12-29T06:36:23;100004.13;;;9.17;100.00
12172;BME280;6149;52.418;13.668;2022-12-29T06:38:52;100009.66;;;9.13;100.00
12172;BME280;6149;52.418;13.668;2022-12-29T06:41:24;100004.81;;;9.21;100.00
12172;BME280;6149;52.418;13.668;2022-12-29T06:43:56;100011.03;;;9.20;100.00
12172;BME280;6149;52.418;13.668;2022-12-29T06:46:25;100014.78;;;9.16;100.00
12172;BME280;6149;52.418;13.668;2022-12-29T06:48:52;100017.41;;;9.16;100.00
12172;BME280;6149;52.418;13.668;2022-12-29T06:51:21;100021.31;;;9.24;100.00
12172;BME280;6149;52.418;13.668;2022-12-29T06:53:47;100029.72;;;9.31;100.00
12172;BME280;6149;52.418;13.668;2022-12-29T06:56:14;100020.59;;;9.36;100.00
12172;BME280;6149;52.418;13.668;2022-12-29T06:58:42;100020.50;;;9.38;100.00
12172;BME280;6149;52.418;13.668;2022-12-29T07:01:11;100027.75;;;9.34;100.00
12172;BME280;6149;52.418;13.668;2022-12-29T07:03:37;100027.84;;;9.33;100.00
12172;BME280;6149;52.418;13.668;2022-12-29T07:06:04;100032.00;;;9.37;100.00
12172;BME280;6149;52.418;13.668;2022-12-29T07:08:32;100043.19;;;9.26;100.00
12172;BME280;6149;52.418;13.668;2022-12-29T07:10:59;100035.66;;;9.34;100.00
12172;BME280;6149;52.418;13.668;2022-12-29T07:13:27;100033.97;;;9.33;100.00
12172;BME280;6149;52.418;13.668;2022-12-29T07:16:09;100040.09;;;9.34;100.00
12172;BME280;6149;52.418;13.668;2022-12-29T07:18:36;100047.25;;;9.32;100.00
12172;BME280;6149;52.418;13.668;2022-12-29T07:21:05;100045.22;;;9.21;100.00
12172;BME280;6149;52.418;13.668;2022-12-29T07:23:34;100041.81;;;9.19;100.00
12172;BME280;6149;52.418;13.668;2022-12-29T07:26:01;100041.31;;;9.13;100.00
12172;BME280;6149;52.418;13.668;2022-12-29T07:28:29;100038.84;;;9.10;100.00
12172;BME280;6149;52.418;13.668;2022-12-29T07:31:00;100042.09;;;9.15;100.00
12172;BME280;6149;52.418;13.668;2022-12-29T07:33:28;100043.34;;;9.08;100.00
12172;BME280;6149;52.418;13.668;2022-12-29T07:35:55;100047.34;;;9.15;100.00
12172;BME280;6149;52.418;13.668;2022-12-29T07:38:25;100050.00;;;9.15;100.00
12172;BME280;6149;52.418;13.668;2022-12-29T07:40:56;100046.41;;;9.16;100.00
12172;BME280;6149;52.418;13.668;2022-12-29T07:43:28;100042.34;;;9.26;100.00
12172;BME280;6149;52.418;13.668;2022-12-29T07:45:56;100041.19;;;9.30;100.00
12172;BME280;6149;52.418;13.668;2022-12-29T07:48:24;100040.25;;;9.31;100.00
12172;BME280;6149;52.418;13.668;2022-12-29T07:50:51;100044.69;;;9.30;100.00
12172;BME280;6149;52.418;13.668;2022-12-29T07:53:19;100039.16;;;9.35;100.00
12172;BME280;6149;52.418;13.668;2022-12-29T07:55:46;100040.94;;;9.34;100.00
12172;BME280;6149;52.418;13.668;2022-12-29T07:58:16;100048.69;;;9.37;100.00
12172;BME280;6149;52.418;13.668;2022-12-29T08:00:43;100041.03;;;9.33;100.00
12172;BME280;6149;52.418;13.668;2022-12-29T08:03:10;100042.78;;;9.48;100.00
12172;BME280;6149;52.418;13.668;2022-12-29T08:05:38;100038.09;;;9.53;100.00
12172;BME280;6149;52.418;13.668;2022-12-29T08:08:05;100034.69;;;9.51;100.00
12172;BME280;6149;52.418;13.668;2022-12-29T08:10:33;100041.25;;;9.60;100.00
12172;BME280;6149;52.418;13.668;2022-12-29T08:13:01;100037.50;;;9.64;100.00
12172;BME280;6149;52.418;13.668;2022-12-29T08:15:28;100036.84;;;9.75;100.00
12172;BME280;6149;52.418;13.668;2022-12-29T08:17:55;100031.97;;;9.83;100.00
12172;BME280;6149;52.418;13.668;2022-12-29T08:20:22;100037.38;;;9.95;100.00
12172;BME280;6149;52.418;13.668;2022-12-29T08:22:53;100038.31;;;9.94;100.00
12172;BME280;6149;52.418;13.668;2022-12-29T08:25:23;100032.75;;;9.99;100.00
12172;BME280;6149;52.418;13.668;2022-12-29T08:27:55;100024.06;;;9.97;100.00
12172;BME280;6149;52.418;13.668;2022-12-29T08:30:22;100018.03;;;10.09;100.00
12172;BME280;6149;52.418;13.668;2022-12-29T08:32:51;100015.47;;;10.07;100.00
12172;BME280;6149;52.418;13.668;2022-12-29T08:35:18;100026.81;;;10.10;100.00
12172;BME280;6149;52.418;13.668;2022-12-29T08:37:46;100036.63;;;10.07;100.00
12172;BME280;6149;52.418;13.668;2022-12-29T08:40:15;100039.16;;;10.09;100.00
12172;BME280;6149;52.418;13.668;2022-12-29T08:42:43;100033.53;;;10.15;100.00
12172;BME280;6149;52.418;13.668;2022-12-29T08:45:10;100036.16;;;10.15;100.00
12172;BME280;6149;52.418;13.668;2022-12-29T08:47:36;100032.75;;;10.13;100.00
12172;BME280;6149;52.418;13.668;2022-12-29T08:50:05;100026.19;;;10.20;100.00
12172;BME280;6149;52.418;13.668;2022-12-29T08:52:35;100030.53;;;10.21;100.00
12172;BME280;6149;52.418;13.668;2022-12-29T08:55:03;100044.94;;;10.16;100.00
12172;BME280;6149;52.418;13.668;2022-12-29T08:57:33;100036.78;;;10.20;100.00
12172;BME280;6149;52.418;13.668;2022-12-29T09:00:00;100024.56;;;10.18;100.00
12172;BME280;6149;52.418;13.668;2022-12-29T09:02:29;100030.97;;;10.14;100.00
12172;BME280;6149;52.418;13.668;2022-12-29T09:04:56;100036.91;;;10.17;100.00
12172;BME280;6149;52.418;13.668;2022-12-29T09:07:25;100038.91;;;10.14;100.00
12172;BME280;6149;52.418;13.668;2022-12-29T09:09:52;100024.84;;;10.13;100.00
12172;BME280;6149;52.418;13.668;2022-12-29T09:12:19;100036.78;;;10.20;100.00
12172;BME280;6149;52.418;13.668;2022-12-29T09:14:51;100027.16;;;10.33;100.00
12172;BME280;6149;52.418;13.668;2022-12-29T09:17:19;100019.41;;;10.30;100.00
12172;BME280;6149;52.418;13.668;2022-12-29T09:20:10;100034.16;;;10.34;100.00
12172;BME280;6149;52.418;13.668;2022-12-29T09:22:38;100029.97;;;10.45;100.00
12172;BME280;6149;52.418;13.668;2022-12-29T09:25:05;100035.63;;;10.53;100.00
12172;BME280;6149;52.418;13.668;2022-12-29T09:27:34;100039.78;;;10.57;100.00
12172;BME280;6149;52.418;13.668;2022-12-29T09:30:06;100020.72;;;10.66;100.00
12172;BME280;6149;52.418;13.668;2022-12-29T09:32:36;100023.94;;;10.71;100.00
12172;BME280;6149;52.418;13.668;2022-12-29T09:35:05;100015.81;;;10.74;100.00
12172;BME280;6149;52.418;13.668;2022-12-29T09:37:32;100006.16;;;10.73;100.00
12172;BME280;6149;52.418;13.668;2022-12-29T09:39:58;100014.81;;;10.89;100.00
12172;BME280;6149;52.418;13.668;2022-12-29T09:42:32;100010.63;;;10.99;99.55
12172;BME280;6149;52.418;13.668;2022-12-29T09:45:11;100000.44;;;11.20;99.68
12172;BME280;6149;52.418;13.668;2022-12-29T09:47:41;99994.59;;;11.42;97.54
12172;BME280;6149;52.418;13.668;2022-12-29T09:50:19;100011.88;;;11.60;96.71
12172;BME280;6149;52.418;13.668;2022-12-29T09:52:58;100000.47;;;11.72;95.70
12172;BME280;6149;52.418;13.668;2022-12-29T09:55:35;100002.34;;;11.85;94.58
12172;BME280;6149;52.418;13.668;2022-12-29T09:58:12;100008.38;;;11.99;93.07
12172;BME280;6149;52.418;13.668;2022-12-29T10:00:50;99982.09;;;12.09;92.95
12172;BME280;6149;52.418;13.668;2022-12-29T10:03:24;99981.56;;;12.17;93.01
12172;BME280;6149;52.418;13.668;2022-12-29T10:06:05;99977.88;;;12.19;92.78
12172;BME280;6149;52.418;13.668;2022-12-29T10:08:39;99979.00;;;12.28;92.75
12172;BME280;6149;52.418;13.668;2022-12-29T10:11:17;99986.84;;;12.29;92.50
12172;BME280;6149;52.418;13.668;2022-12-29T10:14:03;99985.47;;;12.36;93.05
12172;BME280;6149;52.418;13.668;2022-12-29T10:16:49;99978.56;;;12.47;92.05
12172;BME280;6149;52.418;13.668;2022-12-29T10:19:31;99977.38;;;12.51;91.33
12172;BME280;6149;52.418;13.668;2022-12-29T10:22:24;99977.69;;;12.59;90.43
12172;BME280;6149;52.418;13.668;2022-12-29T10:25:02;99976.06;;;12.69;90.93
12172;BME280;6149;52.418;13.668;2022-12-29T10:27:37;99987.41;;;12.71;90.15
12172;BME280;6149;52.418;13.668;2022-12-29T10:30:11;99973.41;;;12.69;90.36
12172;BME280;6149;52.418;13.668;2022-12-29T10:32:45;99970.13;;;12.65;89.66
12172;BME280;6149;52.418;13.668;2022-12-29T10:35:18;99970.44;;;12.73;89.89
12172;BME280;6149;52.418;13.668;2022-12-29T10:37:49;99973.19;;;12.72;89.13
12172;BME280;6149;52.418;13.668;2022-12-29T10:40:24;99987.50;;;12.82;89.34
12172;BME280;6149;52.418;13.668;2022-12-29T10:42:56;100005.31;;;12.80;88.77
12172;BME280;6149;52.418;13.668;2022-12-29T10:45:29;99975.72;;;12.73;88.81
12172;BME280;6149;52.418;13.668;2022-12-29T10:48:02;99978.28;;;12.75;89.54
12172;BME280;6149;52.418;13.668;2022-12-29T10:50:32;99975.84;;;12.72;89.51
12172;BME280;6149;52.418;13.668;2022-12-29T10:53:04;99982.19;;;12.82;88.18
12172;BME280;6149;52.418;13.668;2022-12-29T10:55:35;99977.84;;;12.81;88.35
12172;BME280;6149;52.418;13.668;2022-12-29T10:58:07;99974.75;;;12.87;88.81
12172;BME280;6149;52.418;13.668;2022-12-29T11:00:39;99969.53;;;12.86;88.25
12172;BME280;6149;52.418;13.668;2022-12-29T11:03:24;99976.66;;;12.85;88.26
12172;BME280;6149;52.418;13.668;2022-12-29T11:06:24;99972.13;;;12.75;89.26
12172;BME280;6149;52.418;13.668;2022-12-29T11:08:58;99976.34;;;12.77;89.59
12172;BME280;6149;52.418;13.668;2022-12-29T11:11:33;99981.75;;;12.88;87.88
12172;BME280;6149;52.418;13.668;2022-12-29T11:14:10;99988.13;;;12.86;88.46
12172;BME280;6149;52.418;13.668;2022-12-29T11:16:39;99979.41;;;12.84;88.86
12172;BME280;6149;52.418;13.668;2022-12-29T11:19:21;99970.09;;;12.78;88.93
12172;BME280;6149;52.418;13.668;2022-12-29T11:21:49;99984.97;;;12.68;89.69
12172;BME280;6149;52.418;13.668;2022-12-29T11:24:23;99982.25;;;12.57;90.68
12172;BME280;6149;52.418;13.668;2022-12-29T11:27:13;99988.91;;;12.62;90.76
12172;BME280;6149;52.418;13.668;2022-12-29T11:29:42;99992.13;;;12.55;92.20
12172;BME280;6149;52.418;13.668;2022-12-29T11:32:11;99998.09;;;12.46;93.75
12172;BME280;6149;52.418;13.668;2022-12-29T11:34:40;100004.22;;;12.33;96.60
12172;BME280;6149;52.418;13.668;2022-12-29T11:37:12;100002.75;;;12.29;98.77
12172;BME280;6149;52.418;13.668;2022-12-29T11:39:46;100007.75;;;12.09;100.00
12172;BME280;6149;52.418;13.668;2022-12-29T11:42:20;100002.44;;;11.83;100.00
12172;BME280;6149;52.418;13.668;2022-12-29T11:44:51;100013.72;;;11.72;100.00
12172;BME280;6149;52.418;13.668;2022-12-29T11:47:27;100016.25;;;11.61;100.00
12172;BME280;6149;52.418;13.668;2022-12-29T11:50:02;100033.91;;;11.48;100.00
12172;BME280;6149;52.418;13.668;2022-12-29T11:52:35;100029.41;;;11.36;100.00
12172;BME280;6149;52.418;13.668;2022-12-29T11:55:17;100031.81;;;11.26;100.00
12172;BME280;6149;52.418;13.668;2022-12-29T11:57:47;100034.41;;;11.14;100.00
12172;BME280;6149;52.418;13.668;2022-12-29T12:00:17;100026.50;;;10.99;100.00
12172;BME280;6149;52.418;13.668;2022-12-29T12:02:51;100012.91;;;10.91;100.00
12172;BME280;6149;52.418;13.668;2022-12-29T12:05:33;100007.63;;;10.91;100.00
12172;BME280;6149;52.418;13.668;2022-12-29T12:08:12;99995.94;;;10.81;100.00
12172;BME280;6149;52.418;13.668;2022-12-29T12:10:44;99991.78;;;10.77;100.00
12172;BME280;6149;52.418;13.668;2022-12-29T12:13:19;99982.28;;;10.75;100.00
12172;BME280;6149;52.418;13.668;2022-12-29T12:15:56;99991.25;;;10.72;100.00
12172;BME280;6149;52.418;13.668;2022-12-29T12:18:36;99995.22;;;10.65;100.00
12172;BME280;6149;52.418;13.668;2022-12-29T12:21:22;99980.31;;;10.64;100.00
12172;BME280;6149;52.418;13.668;2022-12-29T12:24:15;99990.22;;;10.60;100.00
12172;BME280;6149;52.418;13.668;2022-12-29T12:26:58;99999.94;;;10.60;100.00
12172;BME280;6149;52.418;13.668;2022-12-29T12:29:34;100039.41;;;10.49;100.00
12172;BME280;6149;52.418;13.668;2022-12-29T12:32:12;100033.84;;;10.53;100.00
12172;BME280;6149;52.418;13.668;2022-12-29T12:34:44;100035.75;;;10.37;100.00
12172;BME280;6149;52.418;13.668;2022-12-29T12:40:39;100033.00;;;10.24;100.00
12172;BME280;6149;52.418;13.668;2022-12-29T12:43:41;100024.84;;;10.13;100.00
12172;BME280;6149;52.418;13.668;2022-12-29T12:46:37;100018.41;;;10.03;100.00
12172;BME280;6149;52.418;13.668;2022-12-29T12:49:36;100025.19;;;9.93;100.00
12172;BME280;6149;52.418;13.668;2022-12-29T12:52:20;100004.06;;;9.93;100.00
12172;BME280;6149;52.418;13.668;2022-12-29T12:55:13;99993.59;;;9.91;100.00
12172;BME280;6149;52.418;13.668;2022-12-29T12:57:59;99999.44;;;9.82;100.00
12172;BME280;6149;52.418;13.668;2022-12-29T13:00:37;99989.03;;;9.79;100.00
12172;BME280;6149;52.418;13.668;2022-12-29T13:03:13;99993.22;;;9.83;100.00
12172;BME280;6149;52.418;13.668;2022-12-29T13:06:01;99989.53;;;9.86;100.00
12172;BME280;6149;52.418;13.668;2022-12-29T13:08:47;99993.13;;;9.85;100.00
12172;BME280;6149;52.418;13.668;2022-12-29T13:11:28;99988.09;;;9.80;100.00
12172;BME280;6149;52.418;13.668;2022-12-29T13:14:19;99995.34;;;9.77;100.00
12172;BME280;6149;52.418;13.668;2022-12-29T13:17:01;99998.88;;;9.91;100.00
12172;BME280;6149;52.418;13.668;2022-12-29T13:19:37;99999.06;;;9.88;100.00
12172;BME280;6149;52.418;13.668;2022-12-29T13:22:10;100009.63;;;9.88;100.00
12172;BME280;6149;52.418;13.668;2022-12-29T13:24:53;100014.41;;;9.82;100.00
12172;BME280;6149;52.418;13.668;2022-12-29T13:27:34;100015.19;;;9.84;100.00
12172;BME280;6149;52.418;13.668;2022-12-29T13:30:14;100022.53;;;9.79;100.00